createdAt,value
2023-05-23T00:00:37.852Z,10.55
2023-05-23T00:01:40.369Z,11.57
2023-05-23T00:02:42.986Z,10.40
2023-05-23T00:03:47.358Z,10.50
2023-05-23T00:04:50.015Z,11.52
2023-05-23T00:05:53.113Z,12.35
2023-05-23T00:06:56.502Z,10.30
2023-05-23T00:07:59.065Z,12.77
2023-05-23T00:09:02.046Z,10.00
2023-05-23T00:10:05.321Z,9.43
2023-05-23T00:11:07.851Z,11.45
2023-05-23T00:12:10.706Z,40.28
2023-05-23T00:13:13.131Z,40.78
2023-05-23T00:14:15.961Z,43.67
2023-05-23T00:15:18.566Z,37.45
2023-05-23T00:16:22.948Z,27.38
2023-05-23T00:17:26.361Z,22.02
2023-05-23T00:18:28.865Z,25.75
2023-05-23T00:19:31.744Z,16.30
2023-05-23T00:20:35.483Z,17.73
2023-05-23T00:21:38.893Z,14.85
2023-05-23T00:22:48.181Z,16.35
2023-05-23T00:23:50.781Z,16.58
2023-05-23T00:24:53.203Z,17.13
2023-05-23T00:25:56.029Z,16.35
2023-05-23T00:26:58.993Z,14.98
2023-05-23T00:28:01.774Z,12.80
2023-05-23T00:29:04.869Z,15.07
2023-05-23T00:30:08.316Z,16.58
2023-05-23T00:31:10.862Z,13.88
2023-05-23T00:32:13.644Z,17.88
2023-05-23T00:33:17.247Z,36.83
2023-05-23T00:34:19.802Z,49.50
2023-05-23T00:35:23.687Z,46.92
2023-05-23T00:36:27.093Z,35.65
2023-05-23T00:37:29.849Z,29.98
2023-05-23T00:38:32.300Z,21.08
2023-05-23T00:39:34.801Z,20.90
2023-05-23T00:40:37.316Z,21.27
2023-05-23T00:41:40.017Z,22.50
2023-05-23T00:42:42.783Z,17.52
2023-05-23T00:43:45.446Z,24.67
2023-05-23T00:44:48.436Z,18.52
2023-05-23T00:45:50.908Z,20.17
2023-05-23T00:46:56.566Z,18.88
2023-05-23T00:48:00.287Z,21.70
2023-05-23T00:49:03.408Z,20.30
2023-05-23T00:50:16.475Z,21.42
2023-05-23T00:51:20.874Z,24.42
2023-05-23T00:52:23.964Z,15.35
2023-05-23T00:53:27.110Z,16.33
2023-05-23T00:54:33.570Z,23.33
2023-05-23T00:55:37.199Z,20.48
2023-05-23T00:56:39.970Z,18.58
2023-05-23T00:57:44.461Z,20.08
2023-05-23T00:58:48.232Z,24.15
2023-05-23T00:59:51.345Z,56.83
2023-05-23T01:00:54.981Z,67.32
2023-05-23T01:01:58.900Z,51.95
2023-05-23T01:03:02.007Z,44.22
2023-05-23T01:04:04.990Z,32.40
2023-05-23T01:05:08.252Z,29.67
2023-05-23T01:06:10.826Z,28.33
2023-05-23T01:07:13.770Z,24.35
2023-05-23T01:08:17.077Z,21.95
2023-05-23T01:09:21.004Z,20.23
2023-05-23T01:10:29.567Z,20.80
2023-05-23T01:11:58.999Z,63.15
2023-05-23T01:13:15.420Z,72.72
2023-05-23T01:14:23.986Z,53.17
2023-05-23T01:16:10.691Z,45.33
2023-05-23T01:17:20.426Z,32.80
2023-05-23T01:18:49.008Z,30.23
2023-05-23T01:20:10.212Z,24.52
2023-05-23T01:21:18.159Z,25.05
2023-05-23T01:22:26.627Z,25.80
2023-05-23T01:23:32.544Z,25.55
2023-05-23T01:24:44.103Z,21.83
2023-05-23T01:26:05.548Z,21.45
2023-05-23T01:28:20.024Z,21.75
2023-05-23T01:29:34.298Z,20.42
2023-05-23T01:30:40.655Z,21.73
2023-05-23T01:31:46.188Z,20.05
2023-05-23T01:32:53.522Z,24.58
2023-05-23T01:33:57.652Z,20.45
2023-05-23T01:35:01.062Z,21.58
2023-05-23T01:36:04.132Z,22.92
2023-05-23T01:37:14.747Z,23.10
2023-05-23T01:38:17.518Z,23.27
2023-05-23T01:39:20.455Z,26.17
2023-05-23T01:40:25.079Z,24.48
2023-05-23T01:41:28.456Z,23.85
2023-05-23T01:42:31.148Z,23.23
2023-05-23T01:43:33.895Z,29.67
2023-05-23T01:44:37.215Z,29.75
2023-05-23T01:45:40.074Z,26.17
2023-05-23T01:46:44.455Z,22.40
2023-05-23T01:47:50.772Z,39.53
2023-05-23T01:48:55.478Z,35.08
2023-05-23T01:49:59.457Z,38.58
2023-05-23T01:51:02.682Z,32.13
2023-05-23T01:52:06.479Z,29.45
2023-05-23T01:53:09.937Z,29.90
2023-05-23T01:54:17.186Z,24.85
2023-05-23T01:55:24.789Z,24.25
2023-05-23T01:56:29.413Z,22.92
2023-05-23T01:57:33.218Z,20.23
2023-05-23T01:58:35.775Z,22.25
2023-05-23T01:59:38.968Z,23.15
2023-05-23T02:00:42.641Z,23.15
2023-05-23T02:01:45.364Z,20.80
2023-05-23T02:02:49.072Z,24.55
2023-05-23T02:03:53.168Z,22.02
2023-05-23T02:04:58.215Z,22.45
2023-05-23T02:06:00.982Z,22.08
2023-05-23T02:07:03.454Z,21.00
2023-05-23T02:08:05.861Z,25.13
2023-05-23T02:09:08.759Z,19.88
2023-05-23T02:10:11.212Z,17.67
2023-05-23T02:11:13.998Z,23.58
2023-05-23T02:12:16.378Z,28.63
2023-05-23T02:13:18.896Z,18.98
2023-05-23T02:14:21.697Z,19.33
2023-05-23T02:15:24.531Z,21.10
2023-05-23T02:16:27.197Z,20.77
2023-05-23T02:17:33.473Z,21.60
2023-05-23T02:18:38.238Z,21.50
2023-05-23T02:19:41.315Z,22.48
2023-05-23T02:20:44.726Z,23.02
2023-05-23T02:21:47.187Z,20.48
2023-05-23T02:22:49.882Z,22.90
2023-05-23T02:23:52.377Z,22.63
2023-05-23T02:24:54.851Z,65.93
2023-05-23T02:25:57.362Z,125.90
2023-05-23T02:26:59.929Z,203.18
2023-05-23T02:28:02.718Z,126.47
2023-05-23T02:29:05.194Z,99.63
2023-05-23T02:30:08.245Z,82.53
2023-05-23T02:31:11.427Z,62.42
2023-05-23T02:32:14.091Z,49.92
2023-05-23T02:33:16.736Z,41.47
2023-05-23T02:34:19.265Z,37.00
2023-05-23T02:35:22.383Z,32.63
2023-05-23T02:36:25.310Z,29.33
2023-05-23T02:37:27.657Z,23.73
2023-05-23T02:38:31.001Z,26.15
2023-05-23T02:39:38.173Z,28.02
2023-05-23T02:40:40.665Z,24.40
2023-05-23T02:41:43.340Z,25.55
2023-05-23T02:42:45.993Z,21.63
2023-05-23T02:43:48.572Z,23.17
2023-05-23T02:44:52.337Z,25.48
2023-05-23T02:45:54.789Z,25.75
2023-05-23T02:46:57.674Z,22.08
2023-05-23T02:48:00.365Z,24.45
2023-05-23T02:49:03.965Z,20.52
2023-05-23T02:50:07.333Z,25.75
2023-05-23T02:51:09.757Z,20.77
2023-05-23T02:52:12.184Z,23.55
2023-05-23T02:53:14.647Z,22.42
2023-05-23T02:54:17.367Z,28.05
2023-05-23T02:55:20.444Z,22.20
2023-05-23T02:56:26.960Z,25.30
2023-05-23T02:57:29.518Z,80.50
2023-05-23T02:58:32.183Z,67.07
2023-05-23T02:59:34.745Z,54.13
2023-05-23T03:00:37.949Z,39.63
2023-05-23T03:01:40.558Z,35.22
2023-05-23T03:02:43.341Z,36.90
2023-05-23T03:03:46.336Z,42.08
2023-05-23T03:04:49.580Z,33.25
2023-05-23T03:05:52.059Z,29.63
2023-05-23T03:06:55.104Z,31.30
2023-05-23T03:07:57.743Z,25.25
2023-05-23T03:09:01.428Z,31.77
2023-05-23T03:10:04.112Z,24.58
2023-05-23T03:11:06.557Z,25.95
2023-05-23T03:12:09.043Z,23.55
2023-05-23T03:13:11.641Z,23.83
2023-05-23T03:14:14.937Z,23.70
2023-05-23T03:15:17.601Z,20.35
2023-05-23T03:16:21.899Z,24.35
2023-05-23T03:17:26.125Z,19.50
2023-05-23T03:18:29.757Z,19.52
2023-05-23T03:19:34.237Z,20.75
2023-05-23T03:20:38.881Z,18.80
2023-05-23T03:21:41.848Z,18.73
2023-05-23T03:22:45.530Z,21.50
2023-05-23T03:23:48.554Z,19.10
2023-05-23T03:24:50.990Z,23.73
2023-05-23T03:25:53.377Z,17.90
2023-05-23T03:26:56.686Z,17.40
2023-05-23T03:27:59.913Z,18.77
2023-05-23T03:29:02.366Z,19.67
2023-05-23T03:30:06.248Z,17.95
2023-05-23T03:31:08.695Z,20.75
2023-05-23T03:32:11.290Z,21.23
2023-05-23T03:33:13.881Z,18.40
2023-05-23T03:34:16.676Z,17.75
2023-05-23T03:35:19.163Z,17.70
2023-05-23T03:36:25.922Z,22.30
2023-05-23T03:37:28.469Z,19.52
2023-05-23T03:38:30.867Z,21.08
2023-05-23T03:39:33.246Z,22.38
2023-05-23T03:40:35.739Z,24.92
2023-05-23T03:41:38.095Z,22.40
2023-05-23T03:42:41.044Z,23.05
2023-05-23T03:43:45.285Z,24.70
2023-05-23T03:44:48.484Z,20.52
2023-05-23T03:45:51.400Z,23.60
2023-05-23T03:46:54.018Z,21.83
2023-05-23T03:47:56.461Z,18.60
2023-05-23T03:48:59.093Z,18.38
2023-05-23T03:50:01.569Z,52.45
2023-05-23T03:51:04.293Z,50.42
2023-05-23T03:52:07.188Z,34.72
2023-05-23T03:53:11.408Z,35.25
2023-05-23T03:54:13.798Z,30.67
2023-05-23T03:55:16.426Z,26.98
2023-05-23T03:56:19.756Z,28.77
2023-05-23T03:57:22.766Z,24.45
2023-05-23T03:58:27.719Z,23.85
2023-05-23T03:59:35.687Z,26.60
2023-05-23T04:00:40.850Z,21.40
2023-05-23T04:01:44.172Z,23.38
2023-05-23T04:02:47.083Z,22.92
2023-05-23T04:03:53.692Z,22.65
2023-05-23T04:04:57.283Z,19.23
2023-05-23T04:06:01.462Z,23.67
2023-05-23T04:07:05.690Z,21.02
2023-05-23T04:08:08.328Z,21.08
2023-05-23T04:09:10.872Z,21.02
2023-05-23T04:10:16.339Z,18.88
2023-05-23T04:11:19.720Z,18.08
2023-05-23T04:12:22.719Z,17.17
2023-05-23T04:13:26.356Z,22.35
2023-05-23T04:14:29.326Z,17.35
2023-05-23T04:15:34.263Z,18.58
2023-05-23T04:16:44.764Z,18.83
2023-05-23T04:17:48.917Z,20.90
2023-05-23T04:18:51.911Z,22.13
2023-05-23T04:19:54.512Z,20.27
2023-05-23T04:21:00.043Z,16.52
2023-05-23T04:22:03.187Z,20.45
2023-05-23T04:23:05.773Z,18.30
2023-05-23T04:24:11.487Z,18.98
2023-05-23T04:25:14.357Z,17.05
2023-05-23T04:26:23.767Z,17.45
2023-05-23T04:27:28.507Z,16.73
2023-05-23T04:28:31.490Z,17.00
2023-05-23T04:29:36.002Z,15.70
2023-05-23T04:30:38.525Z,15.73
2023-05-23T04:31:45.838Z,15.70
2023-05-23T04:32:48.784Z,17.20
2023-05-23T04:33:51.790Z,17.85
2023-05-23T04:34:56.852Z,18.10
2023-05-23T04:36:00.724Z,14.73
2023-05-23T04:37:03.330Z,14.13
2023-05-23T04:38:07.102Z,16.88
2023-05-23T04:39:10.392Z,17.30
2023-05-23T04:40:18.203Z,17.30
2023-05-23T04:41:40.119Z,20.73
2023-05-23T04:43:03.973Z,19.30
2023-05-23T04:44:20.792Z,45.28
2023-05-23T04:45:50.244Z,70.20
2023-05-23T04:47:03.508Z,50.92
2023-05-23T04:48:31.405Z,44.65
2023-05-23T04:49:34.301Z,42.13
2023-05-23T04:50:38.011Z,38.15
2023-05-23T04:51:40.490Z,31.13
2023-05-23T04:52:52.579Z,29.63
2023-05-23T04:53:57.632Z,26.75
2023-05-23T04:55:02.171Z,24.58
2023-05-23T04:56:05.041Z,30.50
2023-05-23T04:57:08.430Z,26.98
2023-05-23T04:58:10.883Z,21.83
2023-05-23T04:59:13.393Z,21.48
2023-05-23T05:00:16.926Z,19.20
2023-05-23T05:01:23.669Z,19.27
2023-05-23T05:02:27.759Z,18.00
2023-05-23T05:03:30.775Z,19.33
2023-05-23T05:04:33.512Z,18.67
2023-05-23T05:05:37.339Z,23.88
2023-05-23T05:06:41.329Z,17.77
2023-05-23T05:07:44.963Z,16.98
2023-05-23T05:08:48.062Z,18.58
2023-05-23T05:09:50.529Z,20.00
2023-05-23T05:10:55.366Z,17.60
2023-05-23T05:12:00.125Z,18.08
2023-05-23T05:13:03.360Z,18.55
2023-05-23T05:14:13.801Z,16.67
2023-05-23T05:15:20.223Z,14.93
2023-05-23T05:16:27.105Z,18.77
2023-05-23T05:17:30.116Z,14.95
2023-05-23T05:18:39.504Z,17.77
2023-05-23T05:19:42.290Z,17.23
2023-05-23T05:20:44.796Z,20.23
2023-05-23T05:21:47.472Z,19.27
2023-05-23T05:22:56.369Z,44.88
2023-05-23T05:24:00.056Z,34.92
2023-05-23T05:25:03.817Z,45.95
2023-05-23T05:26:06.600Z,171.48
2023-05-23T05:27:09.575Z,107.30
2023-05-23T05:28:12.039Z,85.88
2023-05-23T05:29:20.848Z,70.63
2023-05-23T05:30:23.506Z,75.00
2023-05-23T05:31:30.345Z,57.17
2023-05-23T05:32:36.241Z,52.22
2023-05-23T05:33:39.778Z,46.70
2023-05-23T05:34:48.527Z,36.45
2023-05-23T05:35:55.671Z,39.90
2023-05-23T05:36:58.269Z,29.70
2023-05-23T05:38:02.803Z,30.00
2023-05-23T05:39:06.771Z,27.40
2023-05-23T05:40:10.162Z,21.88
2023-05-23T05:41:17.295Z,24.27
2023-05-23T05:42:24.318Z,20.77
2023-05-23T05:43:26.768Z,19.90
2023-05-23T05:44:29.439Z,19.75
2023-05-23T05:45:31.901Z,20.05
2023-05-23T05:46:34.634Z,18.52
2023-05-23T05:47:38.800Z,17.50
2023-05-23T05:48:42.291Z,16.58
2023-05-23T05:49:47.942Z,21.33
2023-05-23T05:50:51.406Z,21.73
2023-05-23T05:51:53.910Z,19.75
2023-05-23T05:52:56.339Z,18.88
2023-05-23T05:53:58.793Z,17.40
2023-05-23T05:55:01.293Z,22.77
2023-05-23T05:56:03.930Z,25.17
2023-05-23T05:57:08.110Z,20.15
2023-05-23T05:58:11.324Z,36.80
2023-05-23T05:59:30.532Z,30.67
2023-05-23T06:00:42.299Z,30.10
2023-05-23T06:01:45.208Z,27.05
2023-05-23T06:02:51.392Z,24.75
2023-05-23T06:04:05.658Z,21.70
2023-05-23T06:05:12.291Z,22.75
2023-05-23T06:06:15.315Z,20.55
2023-05-23T06:07:18.118Z,17.92
2023-05-23T06:08:22.434Z,24.40
2023-05-23T06:09:25.237Z,18.00
2023-05-23T06:10:27.678Z,14.57
2023-05-23T06:11:30.133Z,19.80
2023-05-23T06:12:34.254Z,17.85
2023-05-23T06:13:36.764Z,14.80
2023-05-23T06:14:39.766Z,19.27
2023-05-23T06:15:42.526Z,17.55
2023-05-23T06:16:45.017Z,16.38
2023-05-23T06:17:48.683Z,17.38
2023-05-23T06:18:51.299Z,17.55
2023-05-23T06:19:53.836Z,15.57
2023-05-23T06:20:57.376Z,17.27
2023-05-23T06:21:59.902Z,12.55
2023-05-23T06:23:05.490Z,15.82
2023-05-23T06:24:08.003Z,11.10
2023-05-23T06:25:10.773Z,14.60
2023-05-23T06:26:13.269Z,17.35
2023-05-23T06:27:15.796Z,14.48
2023-05-23T06:28:18.210Z,13.63
2023-05-23T06:29:21.854Z,12.38
2023-05-23T06:30:24.338Z,13.52
2023-05-23T06:31:27.866Z,13.73
2023-05-23T06:32:30.493Z,14.70
2023-05-23T06:33:34.009Z,14.57
2023-05-23T06:34:36.408Z,13.20
2023-05-23T06:35:38.829Z,15.15
2023-05-23T06:36:42.889Z,13.25
2023-05-23T06:37:46.383Z,13.02
2023-05-23T06:38:49.191Z,16.25
2023-05-23T06:39:51.696Z,17.35
2023-05-23T06:40:54.367Z,14.82
2023-05-23T06:41:57.334Z,12.63
2023-05-23T06:42:59.807Z,11.45
2023-05-23T06:44:15.837Z,12.90
2023-05-23T06:45:18.394Z,11.93
2023-05-23T06:46:21.388Z,12.05
2023-05-23T06:47:23.912Z,14.98
2023-05-23T06:48:26.503Z,16.35
2023-05-23T06:49:28.962Z,14.25
2023-05-23T06:50:31.758Z,12.63
2023-05-23T06:51:34.359Z,12.02
2023-05-23T06:52:36.980Z,11.68
2023-05-23T06:53:39.516Z,11.98
2023-05-23T06:54:42.453Z,14.40
2023-05-23T06:55:44.869Z,14.68
2023-05-23T06:56:50.086Z,29.92
2023-05-23T06:57:52.721Z,52.92
2023-05-23T06:58:56.977Z,37.67
2023-05-23T06:59:59.437Z,32.28
2023-05-23T07:01:02.173Z,23.98
2023-05-23T07:02:08.303Z,18.23
2023-05-23T07:03:11.412Z,15.48
2023-05-23T07:04:14.754Z,12.52
2023-05-23T07:05:18.124Z,14.52
2023-05-23T07:06:23.590Z,14.25
2023-05-23T07:07:26.889Z,12.02
2023-05-23T07:08:29.537Z,13.15
2023-05-23T07:09:35.202Z,11.02
2023-05-23T07:10:45.424Z,12.55
2023-05-23T07:12:17.333Z,10.80
2023-05-23T07:13:22.848Z,8.95
2023-05-23T07:14:26.495Z,8.77
2023-05-23T07:15:28.997Z,8.75
2023-05-23T07:16:44.245Z,11.43
2023-05-23T07:17:47.393Z,9.75
2023-05-23T07:18:51.820Z,10.05
2023-05-23T07:19:54.390Z,18.23
2023-05-23T07:20:57.316Z,53.33
2023-05-23T07:21:59.873Z,52.53
2023-05-23T07:23:02.968Z,41.25
2023-05-23T07:27:06.523Z,53.85
2023-05-23T07:28:10.624Z,41.13
2023-05-23T07:29:13.498Z,31.85
2023-05-23T07:30:16.779Z,30.23
2023-05-23T07:31:19.694Z,22.95
2023-05-23T07:32:22.491Z,20.13
2023-05-23T07:33:24.948Z,16.17
2023-05-23T07:34:30.607Z,15.20
2023-05-23T07:35:36.058Z,16.00
2023-05-23T07:36:40.770Z,12.75
2023-05-23T07:37:46.740Z,13.00
2023-05-23T07:38:53.181Z,13.45
2023-05-23T07:39:55.596Z,12.38
2023-05-23T07:41:07.306Z,12.38
2023-05-23T07:42:14.335Z,11.73
2023-05-23T07:43:16.972Z,11.98
2023-05-23T07:44:21.163Z,9.85
2023-05-23T07:45:25.922Z,10.40
2023-05-23T07:46:28.387Z,11.10
2023-05-23T07:47:30.917Z,9.20
2023-05-23T07:48:33.632Z,11.02
2023-05-23T07:49:36.282Z,11.50
2023-05-23T07:50:40.945Z,9.85
2023-05-23T07:51:44.458Z,12.32
2023-05-23T07:52:46.985Z,9.93
2023-05-23T07:53:52.260Z,7.72
2023-05-23T07:54:56.936Z,10.07
2023-05-23T07:56:00.169Z,10.05
2023-05-23T07:57:07.560Z,9.65
2023-05-23T07:58:10.297Z,10.13
2023-05-23T07:59:13.415Z,8.60
2023-05-23T08:00:17.832Z,12.50
2023-05-23T08:01:20.429Z,9.73
2023-05-23T08:02:29.118Z,10.90
2023-05-23T08:03:32.183Z,8.45
2023-05-23T08:04:41.969Z,13.35
2023-05-23T08:05:45.379Z,7.60
2023-05-23T08:07:00.796Z,9.90
2023-05-23T08:08:21.751Z,8.93
2023-05-23T08:09:24.459Z,11.00
2023-05-23T08:10:30.624Z,10.48
2023-05-23T08:11:40.084Z,8.30
2023-05-23T08:12:43.224Z,10.23
2023-05-23T08:13:50.575Z,8.20
2023-05-23T08:15:17.986Z,8.95
2023-05-23T08:16:27.993Z,11.70
2023-05-23T08:17:30.915Z,9.80
2023-05-23T08:18:33.829Z,9.65
2023-05-23T08:19:36.517Z,7.10
2023-05-23T08:20:39.227Z,10.27
2023-05-23T08:21:42.588Z,5.78
2023-05-23T08:22:47.469Z,8.15
2023-05-23T08:23:50.018Z,8.65
2023-05-23T08:24:52.436Z,7.20
2023-05-23T08:25:57.823Z,9.60
2023-05-23T08:27:00.981Z,6.55
2023-05-23T08:28:03.421Z,7.03
2023-05-23T08:29:21.607Z,6.72
2023-05-23T08:30:25.442Z,5.40
2023-05-23T08:31:32.221Z,6.88
2023-05-23T08:32:35.882Z,7.10
2023-05-23T08:33:38.490Z,8.02
2023-05-23T08:34:41.807Z,10.02
2023-05-23T08:35:44.240Z,6.50
2023-05-23T08:36:48.770Z,10.10
2023-05-23T08:37:58.142Z,30.90
2023-05-23T08:39:01.385Z,5.53
2023-05-23T08:40:13.785Z,6.65
2023-05-23T08:41:23.004Z,7.50
2023-05-23T08:42:29.096Z,10.65
2023-05-23T08:43:32.436Z,31.33
2023-05-23T08:44:35.008Z,32.45
2023-05-23T08:45:39.761Z,25.88
2023-05-23T08:46:46.758Z,26.45
2023-05-23T08:48:01.410Z,22.90
2023-05-23T08:49:05.700Z,22.77
2023-05-23T08:50:12.144Z,16.63
2023-05-23T08:51:16.783Z,19.77
2023-05-23T08:52:25.162Z,13.40
2023-05-23T08:53:32.236Z,13.38
2023-05-23T08:54:41.161Z,9.52
2023-05-23T08:55:44.261Z,8.13
2023-05-23T08:56:47.667Z,9.10
2023-05-23T08:57:50.742Z,10.13
2023-05-23T08:59:08.468Z,8.65
2023-05-23T09:00:14.917Z,7.25
2023-05-23T09:01:20.400Z,6.68
2023-05-23T09:02:26.575Z,7.50
2023-05-23T09:03:37.692Z,9.75
2023-05-23T09:04:49.740Z,7.05
2023-05-23T09:05:57.901Z,7.75
2023-05-23T09:07:02.430Z,7.45
2023-05-23T09:08:05.865Z,6.88
2023-05-23T09:09:09.429Z,7.78
2023-05-23T09:10:12.934Z,8.07
2023-05-23T09:11:16.213Z,16.95
2023-05-23T09:12:22.534Z,5.13
2023-05-23T09:13:25.970Z,6.07
2023-05-23T09:14:32.014Z,5.60
2023-05-23T09:16:01.343Z,6.57
2023-05-23T09:17:07.811Z,6.63
2023-05-23T09:18:11.580Z,6.78
2023-05-23T09:19:14.875Z,8.98
2023-05-23T09:20:24.970Z,11.77
2023-05-23T09:21:32.999Z,14.23
2023-05-23T09:22:49.478Z,12.15
2023-05-23T09:23:54.584Z,20.58
2023-05-23T09:24:57.876Z,39.13
2023-05-23T09:26:05.699Z,36.53
2023-05-23T09:27:09.227Z,30.75
2023-05-23T09:28:11.652Z,19.67
2023-05-23T09:29:14.765Z,21.92
2023-05-23T09:30:19.412Z,13.18
2023-05-23T09:31:26.867Z,14.07
2023-05-23T09:32:29.394Z,9.75
2023-05-23T09:33:50.742Z,9.98
2023-05-23T09:34:58.251Z,8.63
2023-05-23T09:36:01.543Z,6.68
2023-05-23T09:37:04.108Z,6.80
2023-05-23T09:38:08.334Z,6.95
2023-05-23T09:39:12.225Z,6.88
2023-05-23T09:40:16.354Z,6.05
2023-05-23T09:41:25.230Z,5.68
2023-05-23T09:42:33.099Z,6.00
2023-05-23T09:43:37.762Z,8.25
2023-05-23T09:44:43.914Z,5.18
2023-05-23T09:45:46.433Z,6.45
2023-05-23T09:46:53.775Z,5.45
2023-05-23T09:47:56.964Z,5.80
2023-05-23T09:49:00.267Z,6.07
2023-05-23T09:50:03.316Z,7.45
2023-05-23T09:51:07.536Z,5.22
2023-05-23T09:52:11.511Z,4.95
2023-05-23T09:53:13.940Z,8.70
2023-05-23T09:54:16.464Z,5.68
2023-05-23T09:55:19.438Z,6.80
2023-05-23T09:56:23.557Z,5.82
2023-05-23T09:57:26.303Z,7.32
2023-05-23T09:58:30.256Z,6.30
2023-05-23T09:59:38.533Z,5.90
2023-05-23T10:00:41.740Z,7.63
2023-05-23T10:01:46.420Z,6.30
2023-05-23T10:03:14.494Z,6.55
2023-05-23T10:04:23.599Z,12.60
2023-05-23T10:05:45.778Z,20.95
2023-05-23T10:06:53.939Z,35.97
2023-05-23T10:07:59.840Z,29.48
2023-05-23T10:09:04.805Z,22.83
2023-05-23T10:10:10.662Z,28.83
2023-05-23T10:11:16.692Z,23.75
2023-05-23T10:12:42.598Z,19.77
2023-05-23T10:13:47.116Z,16.02
2023-05-23T10:14:55.130Z,13.77
2023-05-23T10:16:27.083Z,13.18
2023-05-23T10:18:02.791Z,13.85
2023-05-23T10:19:19.680Z,12.65
2023-05-23T10:20:28.323Z,10.10
2023-05-23T10:21:36.963Z,15.80
2023-05-23T10:22:41.062Z,21.15
2023-05-23T10:23:44.573Z,23.92
2023-05-23T10:24:48.556Z,16.45
2023-05-23T10:25:51.830Z,17.30
2023-05-23T10:26:55.653Z,10.18
2023-05-23T10:28:01.560Z,9.30
2023-05-23T10:29:07.419Z,6.30
2023-05-23T10:30:11.017Z,9.68
2023-05-23T10:31:13.461Z,4.68
2023-05-23T10:32:17.449Z,5.80
2023-05-23T10:33:20.376Z,4.68
2023-05-23T10:34:29.955Z,6.72
2023-05-23T10:35:59.675Z,4.47
2023-05-23T10:37:05.170Z,5.80
2023-05-23T10:38:21.829Z,3.97
2023-05-23T10:39:52.001Z,4.80
2023-05-23T10:41:13.656Z,3.17
2023-05-23T10:42:24.722Z,3.92
2023-05-23T10:43:40.362Z,4.68
2023-05-23T10:44:43.112Z,5.25
2023-05-23T10:45:47.082Z,5.82
2023-05-23T10:46:58.868Z,13.70
2023-05-23T10:48:01.572Z,6.28
2023-05-23T10:49:08.803Z,7.53
2023-05-23T10:50:17.090Z,5.47
2023-05-23T10:51:20.458Z,5.47
2023-05-23T10:52:27.054Z,6.55
2023-05-23T10:53:30.274Z,8.52
2023-05-23T10:54:37.241Z,10.32
2023-05-23T10:55:39.649Z,5.93
2023-05-23T10:56:42.274Z,5.10
2023-05-23T10:57:46.571Z,7.05
2023-05-23T10:58:56.001Z,5.90
2023-05-23T10:59:59.167Z,10.45
2023-05-23T11:01:06.525Z,11.18
2023-05-23T11:02:17.070Z,12.40
2023-05-23T11:03:19.862Z,8.23
2023-05-23T11:04:27.580Z,8.55
2023-05-23T11:05:32.020Z,7.28
2023-05-23T11:06:43.446Z,5.13
2023-05-23T11:07:46.095Z,4.93
2023-05-23T11:08:49.241Z,7.07
2023-05-23T11:10:24.062Z,3.63
2023-05-23T11:11:52.466Z,4.03
2023-05-23T11:13:06.746Z,3.90
2023-05-23T11:14:09.785Z,8.55
2023-05-23T11:15:17.947Z,3.90
2023-05-23T11:16:27.509Z,3.45
2023-05-23T11:17:33.429Z,2.88
2023-05-23T11:18:38.029Z,3.63
2023-05-23T11:19:55.551Z,3.25
2023-05-23T11:20:59.896Z,3.05
2023-05-23T11:22:03.115Z,3.65
2023-05-23T11:23:08.571Z,3.88
2023-05-23T11:24:11.170Z,8.73
2023-05-23T11:25:14.016Z,9.70
2023-05-23T11:26:32.575Z,14.38
2023-05-23T11:27:38.679Z,20.88
2023-05-23T11:28:57.520Z,23.02
2023-05-23T11:30:11.020Z,17.85
2023-05-23T11:31:13.778Z,14.05
2023-05-23T11:32:17.924Z,8.45
2023-05-23T11:33:21.066Z,7.25
2023-05-23T11:34:26.545Z,5.47
2023-05-23T11:35:30.858Z,3.88
2023-05-23T11:36:33.796Z,4.22
2023-05-23T11:37:38.215Z,4.03
2023-05-23T11:38:40.940Z,4.47
2023-05-23T11:39:43.340Z,3.97
2023-05-23T11:40:48.917Z,4.25
2023-05-23T11:42:02.616Z,9.20
2023-05-23T11:43:17.582Z,4.63
2023-05-23T11:44:21.036Z,3.78
2023-05-23T11:45:24.145Z,3.60
2023-05-23T11:46:26.981Z,3.75
2023-05-23T11:47:29.659Z,3.38
2023-05-23T11:48:32.187Z,6.43
2023-05-23T11:49:38.000Z,3.78
2023-05-23T11:50:49.029Z,4.95
2023-05-23T11:52:55.561Z,2.20
2023-05-23T11:54:01.472Z,5.28
2023-05-23T11:55:06.801Z,5.10
2023-05-23T11:56:09.400Z,4.38
2023-05-23T11:57:14.032Z,5.00
2023-05-23T11:58:16.833Z,2.58
2023-05-23T11:59:19.712Z,3.28
2023-05-23T12:00:22.405Z,6.18
2023-05-23T12:01:31.307Z,3.60
2023-05-23T12:02:39.728Z,2.20
2023-05-23T12:03:49.425Z,2.28
2023-05-23T12:04:52.758Z,2.10
2023-05-23T12:05:56.040Z,3.97
2023-05-23T12:06:58.501Z,2.55
2023-05-23T12:08:01.195Z,2.30
2023-05-23T12:09:03.797Z,3.13
2023-05-23T12:10:06.888Z,2.47
2023-05-23T12:11:09.457Z,3.63
2023-05-23T12:12:13.417Z,2.85
2023-05-23T12:13:16.212Z,2.63
2023-05-23T12:14:18.807Z,3.20
2023-05-23T12:15:29.382Z,2.10
2023-05-23T12:16:32.730Z,2.88
2023-05-23T12:17:37.540Z,1.95
2023-05-23T12:18:40.050Z,2.45
2023-05-23T12:19:47.022Z,1.98
2023-05-23T12:20:51.546Z,2.78
2023-05-23T12:21:53.999Z,2.15
2023-05-23T12:22:57.462Z,1.90
2023-05-23T12:23:59.939Z,1.80
2023-05-23T12:25:02.658Z,2.42
2023-05-23T12:26:12.596Z,2.05
2023-05-23T12:27:18.447Z,2.50
2023-05-23T12:28:21.532Z,6.63
2023-05-23T12:29:50.161Z,2.63
2023-05-23T12:30:52.643Z,3.65
2023-05-23T12:31:55.265Z,2.10
2023-05-23T12:32:57.703Z,2.42
2023-05-23T12:34:00.679Z,2.20
2023-05-23T12:35:04.810Z,3.17
2023-05-23T12:36:07.576Z,2.53
2023-05-23T12:37:19.428Z,2.13
2023-05-23T12:38:23.561Z,2.10
2023-05-23T12:39:30.299Z,4.60
2023-05-23T12:40:33.017Z,2.38
2023-05-23T12:41:36.300Z,1.60
2023-05-23T12:42:56.156Z,2.42
2023-05-23T12:43:58.708Z,2.13
2023-05-23T12:45:01.403Z,1.90
2023-05-23T12:46:03.986Z,2.13
2023-05-23T12:47:06.641Z,2.72
2023-05-23T12:48:09.162Z,1.83
2023-05-23T12:49:11.644Z,1.70
2023-05-23T12:50:14.187Z,2.17
2023-05-23T12:51:17.185Z,1.80
2023-05-23T12:52:19.598Z,5.13
2023-05-23T12:53:24.965Z,1.83
2023-05-23T12:54:28.125Z,2.00
2023-05-23T12:55:30.836Z,2.10
2023-05-23T12:56:33.528Z,2.30
2023-05-23T12:57:36.427Z,3.30
2023-05-23T12:58:38.850Z,2.83
2023-05-23T12:59:41.360Z,1.80
2023-05-23T13:00:43.939Z,1.73
2023-05-23T13:01:47.197Z,2.78
2023-05-23T13:02:50.722Z,3.50
2023-05-23T13:03:53.417Z,2.08
2023-05-23T13:04:56.226Z,3.75
2023-05-23T13:05:59.484Z,1.80
2023-05-23T13:07:02.090Z,2.10
2023-05-23T13:08:04.631Z,4.30
2023-05-23T13:09:07.115Z,2.58
2023-05-23T13:10:10.132Z,2.17
2023-05-23T13:11:13.640Z,3.90
2023-05-23T13:12:16.760Z,2.55
2023-05-23T13:13:19.761Z,1.77
2023-05-23T13:14:22.342Z,1.70
2023-05-23T13:15:25.091Z,9.88
2023-05-23T13:16:27.614Z,2.00
2023-05-23T13:17:30.718Z,3.10
2023-05-23T13:18:33.589Z,2.35
2023-05-23T13:19:37.057Z,2.80
2023-05-23T13:20:39.551Z,2.25
2023-05-23T13:21:42.019Z,2.78
2023-05-23T13:22:44.649Z,1.83
2023-05-23T13:23:47.135Z,4.55
2023-05-23T13:24:49.621Z,2.45
2023-05-23T13:25:53.308Z,3.10
2023-05-23T13:26:56.041Z,1.90
2023-05-23T13:27:58.914Z,2.17
2023-05-23T13:29:01.397Z,2.22
2023-05-23T13:30:04.311Z,4.50
2023-05-23T13:31:07.118Z,1.60
2023-05-23T13:32:09.627Z,2.22
2023-05-23T13:33:12.123Z,5.30
2023-05-23T13:34:14.703Z,1.73
2023-05-23T13:35:17.160Z,2.33
2023-05-23T13:36:20.797Z,2.00
2023-05-23T13:37:23.501Z,3.22
2023-05-23T13:38:27.669Z,2.80
2023-05-23T13:39:30.146Z,1.75
2023-05-23T13:40:32.942Z,3.88
2023-05-23T13:41:35.489Z,2.00
2023-05-23T13:42:37.899Z,1.95
2023-05-23T13:43:40.517Z,2.35
2023-05-23T13:44:42.920Z,2.10
2023-05-23T13:45:45.379Z,4.13
2023-05-23T13:46:48.624Z,2.83
2023-05-23T13:47:51.387Z,2.00
2023-05-23T13:48:54.767Z,1.70
2023-05-23T13:49:57.476Z,2.10
2023-05-23T13:51:01.629Z,2.50
2023-05-23T13:52:04.219Z,2.22
2023-05-23T13:53:14.398Z,1.92
2023-05-23T13:54:16.902Z,1.70
2023-05-23T13:55:19.835Z,2.40
2023-05-23T13:56:24.358Z,2.17
2023-05-23T13:57:27.020Z,2.90
2023-05-23T13:58:31.258Z,3.58
2023-05-23T13:59:35.113Z,4.78
2023-05-23T14:00:37.742Z,2.47
2023-05-23T14:01:40.865Z,2.28
2023-05-23T14:02:43.756Z,3.55
2023-05-23T14:03:46.136Z,6.38
2023-05-23T14:04:50.098Z,6.53
2023-05-23T14:05:52.708Z,6.38
2023-05-23T14:06:55.313Z,7.18
2023-05-23T14:07:58.481Z,4.40
2023-05-23T14:09:01.469Z,8.77
2023-05-23T14:10:05.297Z,3.97
2023-05-23T14:11:08.052Z,4.95
2023-05-23T14:12:11.642Z,4.85
2023-05-23T14:13:14.821Z,3.90
2023-05-23T14:14:17.691Z,4.22